createdAt,value
2022-11-05T00:00:22.364Z,84.85
2022-11-05T00:03:07.936Z,85.03
2022-11-05T00:05:55.085Z,83.68
2022-11-05T00:08:40.540Z,84.14
2022-11-05T00:11:11.474Z,85.19
2022-11-05T00:13:59.260Z,85.76
2022-11-05T00:16:45.506Z,84.85
2022-11-05T00:19:15.007Z,84.63
2022-11-05T00:22:01.700Z,84.80
2022-11-05T00:24:47.092Z,84.73
2022-11-05T00:27:15.012Z,84.17
2022-11-05T00:29:43.006Z,83.85
2022-11-05T00:32:10.940Z,83.50
2022-11-05T00:34:38.847Z,84.18
2022-11-05T00:37:08.155Z,84.20
2022-11-05T00:39:36.055Z,83.92
2022-11-05T00:42:21.532Z,84.24
2022-11-05T00:45:04.574Z,84.68
2022-11-05T00:47:51.304Z,84.06
2022-11-05T00:50:20.197Z,83.74
2022-11-05T00:52:59.694Z,83.40
2022-11-05T00:55:33.420Z,83.08
2022-11-05T00:58:02.959Z,83.28
2022-11-05T01:00:32.893Z,83.11
2022-11-05T01:03:02.936Z,82.70
2022-11-05T01:05:31.723Z,82.81
2022-11-05T01:08:02.176Z,82.79
2022-11-05T01:10:30.496Z,83.08
2022-11-05T01:12:59.141Z,83.53
2022-11-05T01:15:27.228Z,83.60
2022-11-05T01:17:55.141Z,83.93
2022-11-05T01:20:23.371Z,83.47
2022-11-05T01:22:51.276Z,83.23
2022-11-05T01:25:20.657Z,83.44
2022-11-05T01:27:48.585Z,84.66
2022-11-05T01:30:16.576Z,84.25
2022-11-05T01:32:44.553Z,84.78
2022-11-05T01:35:14.677Z,86.07
2022-11-05T01:37:43.026Z,85.26
2022-11-05T01:40:13.115Z,86.16
2022-11-05T01:42:42.407Z,85.53
2022-11-05T01:45:15.012Z,87.78
2022-11-05T01:47:59.512Z,87.20
2022-11-05T01:50:32.860Z,90.45
2022-11-05T01:53:06.807Z,96.42
2022-11-05T01:55:38.568Z,95.50
2022-11-05T01:58:10.533Z,94.99
2022-11-05T02:00:38.972Z,92.75
2022-11-05T02:03:07.192Z,92.72
2022-11-05T02:05:36.147Z,91.49
2022-11-05T02:08:04.437Z,89.96
2022-11-05T02:10:33.325Z,91.66
2022-11-05T02:13:01.240Z,90.53
2022-11-05T02:15:41.007Z,90.17
2022-11-05T02:18:21.296Z,91.26
2022-11-05T02:21:01.649Z,92.47
2022-11-05T02:23:52.360Z,91.96
2022-11-05T02:26:45.005Z,90.98
2022-11-05T02:29:42.169Z,90.78
2022-11-05T02:32:19.350Z,90.62
2022-11-05T02:34:56.800Z,90.36
2022-11-05T02:37:39.153Z,89.56
2022-11-05T02:40:15.265Z,89.99
2022-11-05T02:42:47.249Z,89.95
2022-11-05T02:45:27.244Z,90.31
2022-11-05T02:48:04.741Z,89.49
2022-11-05T02:50:38.505Z,89.42
2022-11-05T02:53:12.516Z,89.37
2022-11-05T02:55:43.694Z,89.77
2022-11-05T02:58:12.808Z,89.53
2022-11-05T03:00:45.888Z,89.80
2022-11-05T03:03:23.589Z,89.18
2022-11-05T03:06:02.430Z,89.51
2022-11-05T03:08:42.310Z,89.44
2022-11-05T03:11:15.619Z,89.57
2022-11-05T03:13:54.585Z,89.81
2022-11-05T03:16:31.009Z,90.39
2022-11-05T03:19:07.920Z,89.66
2022-11-05T03:21:46.423Z,91.09
2022-11-05T03:24:19.365Z,90.29
2022-11-05T03:26:51.980Z,90.75
2022-11-05T03:29:25.311Z,90.60
2022-11-05T03:31:57.248Z,90.39
2022-11-05T03:34:31.714Z,90.68
2022-11-05T03:37:00.399Z,90.10
2022-11-05T03:39:32.620Z,90.50
2022-11-05T03:42:05.497Z,91.26
2022-11-05T03:44:37.734Z,92.36
2022-11-05T03:47:08.253Z,92.36
2022-11-05T03:49:41.538Z,90.65
2022-11-05T03:52:13.347Z,90.25
2022-11-05T03:54:41.849Z,89.27
2022-11-05T03:57:13.683Z,88.88
2022-11-05T03:59:44.859Z,88.51
2022-11-05T04:02:15.171Z,88.67
2022-11-05T04:04:44.918Z,88.62
2022-11-05T04:07:31.102Z,88.85
2022-11-05T04:10:16.465Z,89.51
2022-11-05T04:13:01.982Z,88.18
2022-11-05T04:15:30.747Z,87.61
2022-11-05T04:17:59.118Z,87.88
2022-11-05T04:20:46.215Z,86.99
2022-11-05T04:23:31.699Z,87.09
2022-11-05T04:25:59.631Z,86.76
2022-11-05T04:28:47.600Z,87.05
2022-11-05T04:31:14.495Z,87.77
2022-11-05T04:33:42.482Z,87.32
2022-11-05T04:36:11.856Z,87.27
2022-11-05T04:38:39.757Z,87.56
2022-11-05T04:41:14.792Z,89.48
2022-11-05T04:43:42.734Z,88.39
2022-11-05T04:46:11.205Z,88.40
2022-11-05T04:48:39.689Z,87.87
2022-11-05T04:51:07.857Z,88.87
2022-11-05T04:53:37.173Z,88.99
2022-11-05T04:56:12.415Z,89.36
2022-11-05T04:58:41.280Z,91.28
2022-11-05T05:01:13.645Z,96.07
2022-11-05T05:03:42.023Z,99.48
2022-11-05T05:06:10.314Z,100.00
2022-11-05T05:08:39.623Z,100.00
2022-11-05T05:11:10.204Z,100.00
2022-11-05T05:13:38.337Z,100.00
2022-11-05T05:16:07.264Z,100.00
2022-11-05T05:18:35.988Z,98.12
2022-11-05T05:21:21.666Z,97.05
2022-11-05T05:23:50.981Z,95.34
2022-11-05T05:26:18.921Z,94.17
2022-11-05T05:28:46.920Z,94.62
2022-11-05T05:31:15.112Z,94.59
2022-11-05T05:33:43.021Z,94.24
2022-11-05T05:36:11.686Z,94.05
2022-11-05T05:38:39.689Z,93.11
2022-11-05T05:41:09.007Z,92.81
2022-11-05T05:43:36.993Z,92.27
2022-11-05T05:46:05.905Z,92.18
2022-11-05T05:48:33.896Z,91.92
2022-11-05T05:51:02.906Z,92.08
2022-11-05T05:53:31.251Z,92.36
2022-11-05T05:55:59.792Z,92.35
2022-11-05T05:58:35.120Z,92.33
2022-11-05T06:01:04.121Z,91.67
2022-11-05T06:03:32.032Z,91.04
2022-11-05T06:06:03.910Z,90.92
2022-11-05T06:08:32.661Z,91.47
2022-11-05T06:11:01.624Z,92.65
2022-11-05T06:13:31.080Z,92.54
2022-11-05T06:16:02.244Z,91.53
2022-11-05T06:18:30.299Z,91.10
2022-11-05T06:21:02.303Z,91.08
2022-11-05T06:23:31.740Z,90.73
2022-11-05T06:26:02.468Z,91.38
2022-11-05T06:28:31.828Z,92.06
2022-11-05T06:30:59.724Z,89.65
2022-11-05T06:33:28.175Z,88.70
2022-11-05T06:35:59.220Z,88.70
2022-11-05T06:38:27.502Z,88.26
2022-11-05T06:40:55.416Z,87.50
2022-11-05T06:43:23.331Z,88.00
2022-11-05T06:45:52.604Z,88.01
2022-11-05T06:48:20.501Z,87.72
2022-11-05T06:50:48.503Z,88.56
2022-11-05T06:53:16.892Z,87.65
2022-11-05T06:55:47.929Z,86.56
2022-11-05T06:58:16.745Z,85.83
2022-11-05T07:00:44.803Z,83.91
2022-11-05T07:03:14.825Z,83.44
2022-11-05T07:05:45.144Z,82.88
2022-11-05T07:08:13.176Z,81.85
2022-11-05T07:10:41.199Z,79.33
2022-11-05T07:13:09.879Z,79.84
2022-11-05T07:15:39.030Z,78.92
2022-11-05T07:18:08.389Z,77.97
2022-11-05T07:20:37.829Z,77.36
2022-11-05T07:23:08.009Z,76.03
2022-11-05T07:25:36.373Z,77.07
2022-11-05T07:28:05.269Z,76.33
2022-11-05T07:30:34.619Z,75.90
2022-11-05T07:33:02.770Z,75.17
2022-11-05T07:35:30.828Z,74.48
2022-11-05T07:38:00.291Z,75.08
2022-11-05T07:40:30.141Z,75.20
2022-11-05T07:42:59.674Z,75.43
2022-11-05T07:45:29.934Z,75.15
2022-11-05T07:48:00.473Z,74.34
2022-11-05T07:50:31.789Z,73.85
2022-11-05T07:53:05.855Z,74.74
2022-11-05T07:55:35.028Z,73.88
2022-11-05T07:58:03.275Z,74.62
2022-11-05T08:00:31.604Z,74.65
2022-11-05T08:03:07.166Z,74.62
2022-11-05T08:05:37.913Z,73.23
2022-11-05T08:08:08.832Z,73.95
2022-11-05T08:10:37.796Z,74.31
2022-11-05T08:13:06.325Z,73.84
2022-11-05T08:15:35.248Z,71.57
2022-11-05T08:18:04.792Z,72.42
2022-11-05T08:20:33.208Z,72.13
2022-11-05T08:23:01.271Z,72.03
2022-11-05T08:25:30.836Z,71.11
2022-11-05T08:28:00.295Z,71.81
2022-11-05T08:30:28.697Z,72.12
2022-11-05T08:32:58.766Z,72.76
2022-11-05T08:35:27.089Z,72.38
2022-11-05T08:37:59.195Z,72.22
2022-11-05T08:40:27.552Z,71.70
2022-11-05T08:42:59.469Z,71.79
2022-11-05T08:45:27.768Z,72.47
2022-11-05T08:48:00.578Z,72.79
2022-11-05T08:50:28.757Z,72.80
2022-11-05T08:52:57.114Z,73.20
2022-11-05T08:55:25.198Z,71.93
2022-11-05T08:57:58.472Z,72.05
2022-11-05T09:00:27.069Z,71.19
2022-11-05T09:02:55.167Z,72.16
2022-11-05T09:05:23.188Z,70.63
2022-11-05T09:07:53.157Z,70.30
2022-11-05T09:10:24.892Z,69.96
2022-11-05T09:12:52.909Z,70.51
2022-11-05T09:15:23.328Z,69.90
2022-11-05T09:17:51.502Z,71.21
2022-11-05T09:20:19.577Z,70.66
2022-11-05T09:22:47.671Z,70.91
2022-11-05T09:25:16.078Z,70.52
2022-11-05T09:27:44.271Z,69.62
2022-11-05T09:30:14.267Z,69.66
2022-11-05T09:32:44.008Z,69.72
2022-11-05T09:35:12.073Z,68.84
2022-11-05T09:37:40.224Z,68.79
2022-11-05T09:40:08.925Z,68.27
2022-11-05T09:42:42.244Z,68.56
2022-11-05T09:45:16.227Z,68.37
2022-11-05T09:47:50.631Z,68.09
2022-11-05T09:50:23.676Z,68.36
2022-11-05T09:52:51.876Z,67.61
2022-11-05T09:55:29.543Z,66.88
2022-11-05T09:58:01.699Z,66.85
2022-11-05T10:00:31.151Z,66.33
2022-11-05T10:03:05.457Z,65.76
2022-11-05T10:05:35.191Z,65.25
2022-11-05T10:08:08.525Z,65.87
2022-11-05T10:10:42.956Z,65.50
2022-11-05T10:13:20.633Z,65.93
2022-11-05T10:15:56.769Z,66.52
2022-11-05T10:18:29.393Z,66.81
2022-11-05T10:20:57.959Z,65.38
2022-11-05T10:23:27.759Z,65.98
2022-11-05T10:25:58.501Z,65.11
2022-11-05T10:28:29.048Z,65.12
2022-11-05T10:31:00.325Z,65.60
2022-11-05T10:33:34.901Z,65.88
2022-11-05T10:36:08.657Z,65.17
2022-11-05T10:38:36.769Z,66.23
2022-11-05T10:41:20.954Z,66.23
2022-11-05T10:43:51.596Z,64.78
2022-11-05T10:46:34.112Z,64.48
2022-11-05T10:49:18.835Z,64.19
2022-11-05T10:51:48.384Z,63.86
2022-11-05T10:54:20.501Z,63.77
2022-11-05T10:56:48.855Z,63.65
2022-11-05T10:59:25.147Z,63.51
2022-11-05T11:02:02.307Z,62.38
2022-11-05T11:04:37.675Z,63.45
2022-11-05T11:07:06.591Z,62.64
2022-11-05T11:09:37.716Z,62.43
2022-11-05T11:12:08.781Z,62.37
2022-11-05T11:14:36.838Z,62.72
2022-11-05T11:17:24.576Z,62.91
2022-11-05T11:20:19.928Z,62.02
2022-11-05T11:23:02.569Z,61.69
2022-11-05T11:25:35.487Z,61.43
2022-11-05T11:28:06.048Z,61.82
2022-11-05T11:30:35.262Z,61.37
2022-11-05T11:33:09.702Z,61.84
2022-11-05T11:35:40.331Z,61.54
2022-11-05T11:38:15.122Z,60.53
2022-11-05T11:40:43.630Z,60.84
2022-11-05T11:43:22.688Z,61.17
2022-11-05T11:45:54.780Z,61.22
2022-11-05T11:48:26.377Z,61.17
2022-11-05T11:50:57.426Z,60.74
2022-11-05T11:53:29.321Z,61.87
2022-11-05T11:56:15.656Z,61.85
2022-11-05T11:58:47.300Z,62.36
2022-11-05T12:01:52.877Z,61.53
2022-11-05T12:04:55.124Z,61.70
2022-11-05T12:07:46.191Z,61.65
2022-11-05T12:10:40.253Z,62.11
2022-11-05T12:13:33.266Z,62.58
2022-11-05T12:16:08.924Z,62.56
2022-11-05T12:18:46.254Z,61.36
2022-11-05T12:21:40.758Z,62.67
2022-11-05T12:24:24.409Z,63.31
2022-11-05T12:27:04.343Z,63.10
2022-11-05T12:29:54.260Z,63.19
2022-11-05T12:33:00.477Z,63.77
2022-11-05T12:35:47.053Z,63.60
2022-11-05T12:38:27.510Z,63.75
2022-11-05T12:41:12.788Z,64.03
2022-11-05T12:44:02.121Z,63.61
2022-11-05T12:46:39.490Z,63.52
2022-11-05T12:49:24.633Z,63.48
2022-11-05T12:52:10.482Z,63.23
2022-11-05T12:54:53.522Z,63.31
2022-11-05T12:57:24.545Z,63.17
2022-11-05T12:59:58.114Z,63.85
2022-11-05T13:02:31.741Z,63.42
2022-11-05T13:05:02.686Z,63.43
2022-11-05T13:07:35.699Z,63.64
2022-11-05T13:10:09.320Z,63.62
2022-11-05T13:12:42.370Z,64.09
2022-11-05T13:15:27.986Z,63.84
2022-11-05T13:18:01.056Z,64.46
2022-11-05T13:20:32.729Z,64.00
2022-11-05T13:23:07.157Z,63.66
2022-11-05T13:25:40.284Z,63.90
2022-11-05T13:28:20.409Z,64.25
2022-11-05T13:30:52.553Z,64.42
2022-11-05T13:33:23.888Z,64.46
2022-11-05T13:36:16.297Z,64.55
2022-11-05T13:39:00.364Z,65.38
2022-11-05T13:41:32.836Z,65.12
2022-11-05T13:44:26.051Z,64.53
2022-11-05T13:47:11.963Z,64.68
2022-11-05T13:50:13.532Z,64.82
2022-11-05T13:53:01.554Z,64.96
2022-11-05T13:55:49.764Z,64.45
2022-11-05T13:58:48.136Z,65.25
2022-11-05T14:01:28.656Z,64.86
2022-11-05T14:03:57.929Z,65.27
2022-11-05T14:06:29.090Z,65.08
2022-11-05T14:09:01.515Z,65.37
2022-11-05T14:11:33.058Z,65.32
2022-11-05T14:14:03.781Z,66.06
2022-11-05T14:16:51.775Z,66.00
2022-11-05T14:19:36.260Z,66.36
2022-11-05T14:22:38.417Z,66.43
2022-11-05T14:26:03.236Z,66.18
2022-11-05T14:28:43.676Z,66.51
2022-11-05T14:32:02.528Z,66.52
2022-11-05T14:34:40.132Z,67.06
2022-11-05T14:37:26.641Z,66.98
2022-11-05T14:39:56.628Z,67.48
2022-11-05T14:42:28.323Z,67.58
2022-11-05T14:45:03.379Z,67.69
2022-11-05T14:47:35.269Z,67.68
2022-11-05T14:50:11.661Z,67.72
2022-11-05T14:52:41.769Z,67.56
2022-11-05T14:55:27.053Z,68.85
2022-11-05T14:58:21.761Z,69.39
2022-11-05T15:00:50.480Z,69.79
2022-11-05T15:04:00.649Z,71.00
2022-11-05T15:06:32.949Z,71.36
2022-11-05T15:09:27.971Z,72.42
2022-11-05T15:12:09.697Z,72.49
2022-11-05T15:14:42.448Z,72.76
2022-11-05T15:17:19.583Z,73.63
2022-11-05T15:19:48.655Z,73.37
2022-11-05T15:22:28.173Z,73.87
2022-11-05T15:24:56.806Z,73.72
2022-11-05T15:27:41.639Z,74.00
2022-11-05T15:30:16.728Z,73.82
2022-11-05T15:32:44.734Z,74.21
2022-11-05T15:35:21.812Z,73.49
2022-11-05T15:37:56.086Z,75.04
2022-11-05T15:40:30.221Z,75.53
2022-11-05T15:43:16.449Z,75.95
2022-11-05T15:45:44.472Z,77.53
2022-11-05T15:48:16.714Z,77.27
2022-11-05T15:50:44.726Z,78.32
2022-11-05T15:54:15.676Z,80.11
2022-11-05T15:56:22.461Z,80.21
2022-11-05T15:58:52.376Z,80.61
2022-11-05T16:01:28.009Z,82.10
2022-11-05T16:03:59.487Z,82.30
2022-11-05T16:06:38.089Z,82.76
2022-11-05T16:09:07.521Z,82.51
2022-11-05T16:11:35.575Z,82.80
2022-11-05T16:14:17.558Z,83.04
2022-11-05T16:16:46.927Z,82.76
2022-11-05T16:19:40.218Z,83.71
2022-11-05T16:22:09.143Z,84.05
2022-11-05T16:24:38.441Z,84.82
2022-11-05T16:27:07.147Z,84.37
2022-11-05T16:29:37.251Z,84.40
2022-11-05T16:32:08.035Z,85.23
2022-11-05T16:34:39.412Z,85.27
2022-11-05T16:37:09.266Z,85.82
2022-11-05T16:39:38.692Z,86.67
2022-11-05T16:42:39.378Z,86.91
2022-11-05T16:45:08.765Z,87.68
2022-11-05T16:47:36.670Z,87.54
2022-11-05T16:50:14.576Z,88.11
2022-11-05T16:52:42.516Z,87.92
2022-11-05T16:55:11.997Z,88.63
2022-11-05T16:57:40.314Z,88.33
2022-11-05T17:00:09.393Z,89.01
2022-11-05T17:02:37.376Z,89.50
2022-11-05T17:05:05.728Z,89.51
2022-11-05T17:07:37.157Z,88.66
2022-11-05T17:10:09.404Z,87.36
2022-11-05T17:12:38.786Z,88.27
2022-11-05T17:15:17.067Z,86.37
2022-11-05T17:17:45.170Z,89.04
2022-11-05T17:20:22.656Z,87.32
2022-11-05T17:22:50.587Z,87.39
2022-11-05T17:25:18.600Z,91.21
2022-11-05T17:27:47.943Z,90.60
2022-11-05T17:30:16.116Z,90.64
2022-11-05T17:32:44.344Z,90.36
2022-11-05T17:35:12.939Z,91.80
2022-11-05T17:37:40.898Z,92.29
2022-11-05T17:40:13.688Z,92.78
2022-11-05T17:42:41.741Z,91.93
2022-11-05T17:45:12.705Z,89.74
2022-11-05T17:47:41.720Z,88.76
2022-11-05T17:50:12.029Z,87.42
2022-11-05T17:52:39.963Z,87.55
2022-11-05T17:55:16.593Z,90.10
2022-11-05T17:57:46.337Z,91.90
2022-11-05T18:00:17.145Z,90.42
2022-11-05T18:02:46.252Z,88.88
2022-11-05T18:05:14.473Z,90.18
2022-11-05T18:07:43.127Z,88.98
2022-11-05T18:10:11.122Z,89.84
2022-11-05T18:12:39.181Z,89.66
2022-11-05T18:15:08.665Z,88.75
2022-11-05T18:17:38.290Z,88.06
2022-11-05T18:20:11.692Z,85.01
2022-11-05T18:22:42.582Z,85.12
2022-11-05T18:25:11.664Z,85.69
2022-11-05T18:27:40.146Z,86.26
2022-11-05T18:30:10.316Z,85.79
2022-11-05T18:32:40.247Z,85.19
2022-11-05T18:35:08.766Z,85.41
2022-11-05T18:37:38.701Z,85.57
2022-11-05T18:40:08.085Z,86.94
2022-11-05T18:42:36.157Z,87.00
2022-11-05T18:45:04.662Z,87.54
2022-11-05T18:47:33.650Z,86.92
2022-11-05T18:50:03.490Z,86.62
2022-11-05T18:52:32.914Z,85.07
2022-11-05T18:55:01.021Z,85.02
2022-11-05T18:57:29.351Z,85.35
2022-11-05T18:59:57.290Z,84.96
2022-11-05T19:02:25.344Z,84.89
2022-11-05T19:05:26.825Z,85.18
2022-11-05T19:07:42.734Z,86.02
2022-11-05T19:10:10.884Z,85.51
2022-11-05T19:12:38.809Z,86.25
2022-11-05T19:15:08.144Z,87.31
2022-11-05T19:17:36.828Z,87.21
2022-11-05T19:20:06.034Z,86.88
2022-11-05T19:22:34.111Z,86.28
2022-11-05T19:25:03.399Z,84.93
2022-11-05T19:27:31.335Z,84.88
2022-11-05T19:29:59.261Z,87.08
2022-11-05T19:32:27.776Z,87.95
2022-11-05T19:34:55.691Z,87.98
2022-11-05T19:37:23.607Z,88.42
2022-11-05T19:39:52.127Z,87.80
2022-11-05T19:42:21.461Z,86.61
2022-11-05T19:44:49.355Z,86.39
2022-11-05T19:47:17.272Z,86.46
2022-11-05T19:49:45.204Z,88.58
2022-11-05T19:52:13.144Z,88.35
2022-11-05T19:54:41.101Z,87.49
2022-11-05T19:57:09.045Z,86.83
2022-11-05T19:59:38.380Z,87.31
2022-11-05T20:02:09.335Z,88.58
2022-11-05T20:04:39.829Z,89.56
2022-11-05T20:07:07.758Z,97.71
2022-11-05T20:09:35.872Z,95.77
2022-11-05T20:12:03.789Z,94.42
2022-11-05T20:14:31.705Z,92.98
2022-11-05T20:17:01.238Z,91.56
2022-11-05T20:19:29.267Z,89.87
2022-11-05T20:22:00.844Z,89.13
2022-11-05T20:24:28.816Z,88.77
2022-11-05T20:26:57.712Z,89.72
2022-11-05T20:29:33.683Z,89.91
2022-11-05T20:32:05.660Z,90.78
2022-11-05T20:34:35.044Z,91.72
2022-11-05T20:37:03.103Z,89.44
2022-11-05T20:39:31.128Z,90.27
2022-11-05T20:42:00.653Z,90.51
2022-11-05T20:44:28.949Z,89.62
2022-11-05T20:46:57.096Z,88.99
2022-11-05T20:49:26.699Z,90.34
2022-11-05T20:51:54.786Z,90.93
2022-11-05T20:54:23.164Z,89.93
2022-11-05T20:56:51.081Z,88.56
2022-11-05T20:59:19.536Z,88.80
2022-11-05T21:01:47.574Z,88.45
2022-11-05T21:04:15.564Z,89.50
2022-11-05T21:06:44.915Z,90.60
2022-11-05T21:09:13.222Z,90.78
2022-11-05T21:11:58.903Z,90.35
2022-11-05T21:14:26.807Z,88.57
2022-11-05T21:16:54.743Z,87.22
2022-11-05T21:19:24.069Z,87.06
2022-11-05T21:21:53.442Z,87.28
2022-11-05T21:24:21.538Z,87.23
2022-11-05T21:26:50.419Z,87.80
2022-11-05T21:29:19.233Z,87.40
2022-11-05T21:31:47.695Z,87.75
2022-11-05T21:34:16.078Z,88.36
2022-11-05T21:36:44.619Z,89.46
2022-11-05T21:39:14.076Z,89.30
2022-11-05T21:41:42.792Z,89.05
2022-11-05T21:44:10.842Z,89.46
2022-11-05T21:46:38.908Z,88.00
2022-11-05T21:49:06.828Z,87.43
2022-11-05T21:51:52.376Z,87.01
2022-11-05T21:54:38.841Z,87.30
2022-11-05T21:57:24.127Z,86.86
2022-11-05T21:59:57.564Z,86.65
2022-11-05T22:02:28.572Z,87.00
2022-11-05T22:04:59.975Z,86.96
2022-11-05T22:07:30.203Z,86.88
2022-11-05T22:09:59.674Z,87.40
2022-11-05T22:12:27.671Z,86.80
2022-11-05T22:14:56.213Z,87.67
2022-11-05T22:17:24.859Z,90.33
2022-11-05T22:19:52.810Z,88.56
2022-11-05T22:22:21.041Z,87.83
2022-11-05T22:24:49.001Z,86.53
2022-11-05T22:27:21.530Z,85.84
2022-11-05T22:29:49.886Z,86.15
2022-11-05T22:32:18.389Z,87.42
2022-11-05T22:34:46.338Z,87.26
2022-11-05T22:37:14.290Z,87.45
2022-11-05T22:39:42.193Z,87.17
2022-11-05T22:42:10.412Z,88.71
2022-11-05T22:44:39.811Z,89.39
2022-11-05T22:47:07.912Z,89.79
2022-11-05T22:49:36.041Z,88.48
2022-11-05T22:52:03.992Z,87.92
2022-11-05T22:54:37.901Z,86.66
2022-11-05T22:57:07.153Z,87.27
2022-11-05T22:59:35.070Z,87.91
2022-11-05T23:02:09.424Z,88.11
2022-11-05T23:04:38.486Z,88.67
2022-11-05T23:07:27.641Z,89.26
2022-11-05T23:10:13.853Z,89.96
2022-11-05T23:12:43.693Z,89.37
2022-11-05T23:15:32.585Z,89.70
2022-11-05T23:18:19.390Z,89.00
2022-11-05T23:21:01.185Z,91.07
2022-11-05T23:23:46.539Z,90.82
2022-11-05T23:26:31.967Z,90.95
2022-11-05T23:28:59.869Z,89.36
2022-11-05T23:31:45.019Z,89.70
2022-11-05T23:34:14.303Z,88.45
2022-11-05T23:36:59.804Z,89.24
2022-11-05T23:39:27.733Z,89.52
2022-11-05T23:42:12.964Z,96.46
2022-11-05T23:44:58.477Z,94.93
2022-11-05T23:47:43.693Z,94.45
2022-11-05T23:50:12.985Z,96.88
2022-11-05T23:52:40.929Z,100.00
2022-11-05T23:55:09.729Z,97.63
2022-11-05T23:57:38.163Z,98.96
